Cosco Aden — VRKF9 — position and weather

sailwx.info

Track history (hours):
 
Tides and Currents Weather Stations Pressure Air Temp Water Temp Dewpoint Dewpoint Depression Visibility Wind Speed Wind Dir Waves Ship Positions

Cosco Aden

Last reported at 2015-May-03 15:32 UTC. Time now 2015-May-03 15:53 UTC.
Position N 35°58' E 120°47'.

Length 261 m; draft 8.1 m.

Type: Other ship. MMSI: 477765900.

Date/timePositionNaut miles runAvg speedWind from/ knotsBaromVisibWave heightAir tempDewpointWater temp
2015-May-03 15:32N 35°58' E 120°47'5 4.7
2015-May-03 14:30N 35°53' E 120°48'323 8.5
2015-May-02 00:32N 30°37' E 122°04'26 8.5
2015-May-01 21:28N 30°31' E 122°33'3 0.4
2015-May-01 15:14N 30°32' E 122°31'11 2.2
2015-May-01 10:06N 30°27' E 122°43'0 0.1
2015-May-01 08:12N 30°27' E 122°43'0 0.1
2015-May-01 07:33N 30°27' E 122°43'0 0.0
2015-May-01 06:33N 30°27' E 122°43'0 0.1
2015-May-01 05:33N 30°27' E 122°43'0 0.0
2015-May-01 04:27N 30°27' E 122°43'0 0.1
2015-May-01 03:30N 30°27' E 122°43'0 0.2
2015-May-01 02:33N 30°28' E 122°43'0 0.0
2015-Apr-30 23:23N 30°28' E 122°43'4 4.5
2015-Apr-30 22:30N 30°26' E 122°47'10 9.7
2015-Apr-30 21:27N 30°19' E 122°56'8 9.1
2015-Apr-30 20:33N 30°13' E 123°02'16 7.7
2015-Apr-30 18:32N 29°58' E 122°59'8 8.3
2015-Apr-30 17:32N 29°54' E 122°51'8 8.5
2015-Apr-30 16:33N 29°50' E 122°42'9 9.0
2015-Apr-30 15:33N 29°46' E 122°33'9 9.4
2015-Apr-30 14:33N 29°44' E 122°23'9 9.1
2015-Apr-30 13:33N 29°49' E 122°14'1010.2
2015-Apr-30 12:33N 29°55' E 122°04'1010.5
2015-Apr-30 11:34N 29°57' E 121°52'1 0.3
2015-Apr-30 09:10N 29°56' E 121°52'0 0.0
2015-Apr-30 08:22N 29°56' E 121°52'0 0.0
2015-Apr-30 07:22N 29°56' E 121°52'0 0.0
2015-Apr-30 06:31N 29°56' E 121°52'0 0.0
2015-Apr-30 05:31N 29°56' E 121°52'0 0.0
2015-Apr-30 03:25N 29°56' E 121°52'3 3.4
2015-Apr-30 02:33N 29°57' E 121°55'1110.7
2015-Apr-30 01:33N 29°56' E 122°07'1211.9
2015-Apr-30 00:33N 29°47' E 122°17'9 9.0
2015-Apr-29 23:33N 29°44' E 122°26'1 1.1
2015-Apr-29 22:33N 29°44' E 122°27'1 0.9
2015-Apr-29 21:33N 29°44' E 122°28'2 2.1
2015-Apr-29 20:33N 29°45' E 122°31'6 6.5
2015-Apr-29 19:33N 29°48' E 122°37'9 9.1
2015-Apr-29 18:33N 29°53' E 122°46'9 9.5
2015-Apr-29 17:33N 30°01' E 122°51'11 9.4
2015-Apr-29 16:22N 30°10' E 122°60'1012.7
2015-Apr-29 15:33N 30°15' E 122°50'7 5.9
2015-Apr-29 14:18N 30°19' E 122°42'6 7.4
2015-Apr-29 13:26N 30°21' E 122°36'8 8.8
2015-Apr-29 12:29N 30°22' E 122°26'7 7.1
2015-Apr-29 11:32N 30°22' E 122°18'7 6.8
2015-Apr-29 10:33N 30°23' E 122°10'7 6.7
2015-Apr-29 09:31N 30°23' E 122°02'7 7.7
2015-Apr-29 08:33N 30°23' E 121°54'7 6.8
2015-Apr-29 07:33N 30°20' E 121°47'7 6.6
2015-Apr-29 06:31N 30°16' E 121°53'7 2.1
2015-Apr-29 03:09N 30°14' E 122°01'5 7.4
2015-Apr-29 02:31N 30°10' E 122°04'  
2015-Apr-24 09:33N 30°09' E 122°01'0 0.1
2015-Apr-24 08:33N 30°09' E 122°01'3 2.9
2015-Apr-24 07:33N 30°10' E 122°04'1010.0
2015-Apr-24 06:34N 30°16' E 121°55'8 8.1
2015-Apr-24 05:33N 30°20' E 121°47'1211.8
2015-Apr-24 04:34N 30°23' E 121°60'1616.4
2015-Apr-24 03:33N 30°22' E 122°19'1413.9
2015-Apr-24 02:33N 30°25' E 122°35'1313.4
2015-Apr-24 01:33N 30°32' E 122°21'1515.2
2015-Apr-24 00:33N 30°37' E 122°04'1 1.3
2015-Apr-23 23:33N 30°38' E 122°03'0 0.0
2015-Apr-23 22:33N 30°38' E 122°03'0 0.1
2015-Apr-23 21:33N 30°38' E 122°03'0 0.0
2015-Apr-23 20:33N 30°38' E 122°03'0 0.1
2015-Apr-23 19:30N 30°38' E 122°03'0 0.1
2015-Apr-23 18:33N 30°38' E 122°03'0 0.0
2015-Apr-23 17:33N 30°38' E 122°03'0 0.1
2015-Apr-23 16:33N 30°38' E 122°03'  
Track history (hours):
 
Tides and Currents Weather Stations Pressure Air Temp Water Temp Dewpoint Dewpoint Depression Visibility Wind Speed Wind Dir Waves Ship Positions

Cosco Aden

Last reported at 2015-May-03 15:32 UTC. Time now 2015-May-03 15:53 UTC.
Position N 35°58' E 120°47'.

Length 261 m; draft 8.1 m.

Type: Other ship. MMSI: 477765900.

Date/timePositionNaut miles runAvg speedWind from/ knotsBaromVisibWave heightAir tempDewpointWater temp
2015-May-03 15:32N 35°58' E 120°47'5 4.7
2015-May-03 14:30N 35°53' E 120°48'323 8.5
2015-May-02 00:32N 30°37' E 122°04'26 8.5
2015-May-01 21:28N 30°31' E 122°33'3 0.4
2015-May-01 15:14N 30°32' E 122°31'11 2.2
2015-May-01 10:06N 30°27' E 122°43'0 0.1
2015-May-01 08:12N 30°27' E 122°43'0 0.1
2015-May-01 07:33N 30°27' E 122°43'0 0.0
2015-May-01 06:33N 30°27' E 122°43'0 0.1
2015-May-01 05:33N 30°27' E 122°43'0 0.0
2015-May-01 04:27N 30°27' E 122°43'0 0.1
2015-May-01 03:30N 30°27' E 122°43'0 0.2
2015-May-01 02:33N 30°28' E 122°43'0 0.0
2015-Apr-30 23:23N 30°28' E 122°43'4 4.5
2015-Apr-30 22:30N 30°26' E 122°47'10 9.7
2015-Apr-30 21:27N 30°19' E 122°56'8 9.1
2015-Apr-30 20:33N 30°13' E 123°02'16 7.7
2015-Apr-30 18:32N 29°58' E 122°59'8 8.3
2015-Apr-30 17:32N 29°54' E 122°51'8 8.5
2015-Apr-30 16:33N 29°50' E 122°42'9 9.0
2015-Apr-30 15:33N 29°46' E 122°33'9 9.4
2015-Apr-30 14:33N 29°44' E 122°23'9 9.1
2015-Apr-30 13:33N 29°49' E 122°14'1010.2
2015-Apr-30 12:33N 29°55' E 122°04'1010.5
2015-Apr-30 11:34N 29°57' E 121°52'1 0.3
2015-Apr-30 09:10N 29°56' E 121°52'0 0.0
2015-Apr-30 08:22N 29°56' E 121°52'0 0.0
2015-Apr-30 07:22N 29°56' E 121°52'0 0.0
2015-Apr-30 06:31N 29°56' E 121°52'0 0.0
2015-Apr-30 05:31N 29°56' E 121°52'0 0.0
2015-Apr-30 03:25N 29°56' E 121°52'3 3.4
2015-Apr-30 02:33N 29°57' E 121°55'1110.7
2015-Apr-30 01:33N 29°56' E 122°07'1211.9
2015-Apr-30 00:33N 29°47' E 122°17'9 9.0
2015-Apr-29 23:33N 29°44' E 122°26'1 1.1
2015-Apr-29 22:33N 29°44' E 122°27'1 0.9
2015-Apr-29 21:33N 29°44' E 122°28'2 2.1
2015-Apr-29 20:33N 29°45' E 122°31'6 6.5
2015-Apr-29 19:33N 29°48' E 122°37'9 9.1
2015-Apr-29 18:33N 29°53' E 122°46'9 9.5
2015-Apr-29 17:33N 30°01' E 122°51'11 9.4
2015-Apr-29 16:22N 30°10' E 122°60'1012.7
2015-Apr-29 15:33N 30°15' E 122°50'7 5.9
2015-Apr-29 14:18N 30°19' E 122°42'6 7.4
2015-Apr-29 13:26N 30°21' E 122°36'8 8.8
2015-Apr-29 12:29N 30°22' E 122°26'7 7.1
2015-Apr-29 11:32N 30°22' E 122°18'7 6.8
2015-Apr-29 10:33N 30°23' E 122°10'7 6.7
2015-Apr-29 09:31N 30°23' E 122°02'7 7.7
2015-Apr-29 08:33N 30°23' E 121°54'7 6.8
2015-Apr-29 07:33N 30°20' E 121°47'7 6.6
2015-Apr-29 06:31N 30°16' E 121°53'7 2.1
2015-Apr-29 03:09N 30°14' E 122°01'5 7.4
2015-Apr-29 02:31N 30°10' E 122°04'  
2015-Apr-24 09:33N 30°09' E 122°01'0 0.1
2015-Apr-24 08:33N 30°09' E 122°01'3 2.9
2015-Apr-24 07:33N 30°10' E 122°04'1010.0
2015-Apr-24 06:34N 30°16' E 121°55'8 8.1
2015-Apr-24 05:33N 30°20' E 121°47'1211.8
2015-Apr-24 04:34N 30°23' E 121°60'1616.4
2015-Apr-24 03:33N 30°22' E 122°19'1413.9
2015-Apr-24 02:33N 30°25' E 122°35'1313.4
2015-Apr-24 01:33N 30°32' E 122°21'1515.2
2015-Apr-24 00:33N 30°37' E 122°04'1 1.3
2015-Apr-23 23:33N 30°38' E 122°03'0 0.0
2015-Apr-23 22:33N 30°38' E 122°03'0 0.1
2015-Apr-23 21:33N 30°38' E 122°03'0 0.0
2015-Apr-23 20:33N 30°38' E 122°03'0 0.1
2015-Apr-23 19:30N 30°38' E 122°03'0 0.1
2015-Apr-23 18:33N 30°38' E 122°03'0 0.0
2015-Apr-23 17:33N 30°38' E 122°03'0 0.1
2015-Apr-23 16:33N 30°38' E 122°03'  

Dump ship's entire track history